Data for 06/26/2006

Time Sea-Level Adjusted Pressure Absolute Pressure Temperature Relative Humidity Dew Point   
(mb) (inHg) (mb) (inHg) (C) (F) (%) (C) (F)
00:05 1028 30.36 857 25.31 19.5 67.1 34 3.4 38.1
00:10 1028 30.36 857 25.31 19.5 67.1 34 3.3 38
00:15 1028 30.36 857 25.31 19.5 67 34 3.2 37.8
00:20 1028 30.36 857 25.31 19.4 66.9 34 3.3 38
00:25 1028 30.36 857 25.31 19.2 66.6 35 3.4 38.2
00:30 1028 30.36 857 25.31 19 66.2 35 3.2 37.7
00:35 1028 30.36 857 25.31 19 66.2 34 3 37.5
00:40 1028 30.36 857 25.31 19 66.1 34 3 37.4
00:45 1028 30.36 857 25.31 18.9 66.1 35 3.1 37.6
00:50 1028 30.36 857 25.31 18.8 65.8 35 3 37.5
00:55 1028 30.36 857 25.31 18.7 65.6 35 2.9 37.1
01:00 1028 30.36 857 25.31 18.7 65.6 35 2.9 37.2
01:05 1028 30.36 857 25.31 18.8 65.8 34 2.6 36.6
01:10 1028 30.36 857 25.31 18.9 66 33 2.5 36.6
01:15 1028 30.36 857 25.31 18.9 65.9 34 2.7 36.9
01:20 1028 30.36 857 25.31 18.7 65.6 34 2.5 36.5
01:25 1028 30.36 857 25.31 18.5 65.3 35 2.7 36.9
01:30 1028 30.36 857 25.31 18.1 64.5 36 2.7 36.9
01:35 1028 30.36 857 25.31 17.8 64.1 36 2.7 36.8
01:40 1028 30.36 857 25.31 17.7 63.9 36 2.8 37
01:45 1028 30.36 857 25.31 17.4 63.2 39 3.6 38.4
01:50 1028 30.36 857 25.31 16.6 61.8 44 4.4 40
01:55 1028 30.36 857 25.31 15.9 60.6 44 3.7 38.6
02:00 1028 30.36 857 25.31 15.8 60.4 42 3 37.4
02:05 1028 30.36 857 25.31 16 60.8 40 2.5 36.6
02:10 1028 30.36 857 25.31 16 60.9 40 2.6 36.7
02:15 1028 30.36 857 25.31 16 60.8 41 2.8 37
02:20 1028 30.36 857 25.31 16.1 61 41 3 37.5
02:25 1028 30.36 857 25.31 15.9 60.6 41 2.7 36.9
02:30 1028 30.36 857 25.31 16 60.8 41 2.7 36.9
02:35 1028 30.36 857 25.31 16.7 62.1 36 1.9 35.4
02:40 1028 30.36 857 25.31 17 62.5 35 1.6 34.9
02:45 1028 30.36 857 25.31 16.8 62.3 35 1.2 34.2
02:50 1028 30.36 857 25.31 16.4 61.5 37 1.8 35.2
02:55 1028 30.36 857 25.31 16.1 61 43 3.5 38.3
03:00 1028 30.36 857 25.31 16.2 61.1 37 1.6 34.9
03:05 1028 30.36 857 25.31 15.7 60.3 40 2.4 36.4
03:10 1028 30.36 857 25.31 15.2 59.3 43 2.9 37.2
03:15 1028 30.36 857 25.31 15 59 43 2.5 36.5
03:20 1028 30.36 857 25.31 14.6 58.2 46 3.3 37.9
03:25 1028 30.36 857 25.31 14.2 57.6 46 2.9 37.2
03:30 1028 30.36 857 25.31 14 57.2 48 3.1 37.6
03:35 1028 30.36 857 25.31 14 57.2 47 3.1 37.5
03:40 1028 30.36 857 25.31 14.2 57.5 46 2.9 37.2
03:45 1028 30.36 857 25.31 14.3 57.7 47 3.1 37.6
03:50 1028 30.36 857 25.31 14.2 57.5 47 3 37.4
03:55 1028 30.36 857 25.31 14.1 57.5 47 3.1 37.6
04:00 1028 30.36 857 25.31 13.9 57 49 3.4 38.2
04:05 1028 30.36 857 25.31 13.7 56.7 53 4.5 40.1
04:10 1028 30.36 857 25.31 13.7 56.6 50 3.5 38.2
04:15 1028 30.36 857 25.31 13.6 56.4 48 3 37.4
04:20 1028 30.36 857 25.31 13.7 56.7 49 3.3 38
04:25 1028 30.36 857 25.31 13.7 56.7 52 4.1 39.4
04:30 1028 30.36 857 25.31 13.2 55.7 57 4.9 40.8
04:35 1028 30.36 857 25.31 12.7 54.9 56 4.2 39.6
04:40 1028 30.36 857 25.31 12.6 54.7 56 4.1 39.3
04:45 1028 30.36 857 25.31 12.8 55 54 3.7 38.7
04:50 1028 30.36 857 25.31 13 55.5 52 3.5 38.3
04:55 1028 30.36 857 25.31 13 55.5 52 3.5 38.3
05:00 1028 30.36 857 25.31 13 55.4 53 3.7 38.6
05:05 1028 30.36 857 25.31 13.1 55.6 53 3.8 38.9
05:10 1028 30.36 857 25.31 12.6 54.6 56 4 39.2
05:15 1028 30.36 857 25.31 12.8 55.1 53 3.6 38.5
05:20 1028 30.36 857 25.31 12.8 55 54 3.7 38.7
05:25 1028 30.36 857 25.31 12.8 55.1 53 3.6 38.5
05:30 1028 30.36 857 25.31 12.9 55.2 52 3.5 38.2
05:35 1028 30.36 857 25.31 13 55.3 51 3.2 37.8
05:40 1028 30.36 857 25.31 13 55.4 52 3.3 38
05:45 1028 30.36 857 25.31 13.2 55.7 48 2.6 36.7
05:50 1028 30.36 857 25.31 13.3 55.9 52 3.8 38.8
05:55 1028 30.36 857 25.31 12.8 55 54 3.8 38.8
06:00 1028 30.36 857 25.31 12.7 54.9 53 3.4 38.2
06:05 1028 30.36 857 25.31 12.6 54.7 52 3 37.5
06:10 1028 30.36 857 25.31 12.6 54.6 51 2.9 37.2
06:15 1028 30.36 857 25.31 12.5 54.5 53 3.3 37.9
06:20 1028 30.36 857 25.31 12.3 54.2 54 3.3 38
06:25 1028 30.36 857 25.31 12.4 54.3 53 3.2 37.8
06:30 1028 30.36 857 25.31 12.5 54.5 54 3.4 38.2
06:35 1028 30.36 857 25.31 12.5 54.5 56 3.9 39
06:40 1028 30.36 857 25.31 12.9 55.2 52 3.4 38.1
06:45 1028 30.36 857 25.31 13.1 55.5 50 3 37.4
06:50 1028 30.36 857 25.31 13.3 55.9 51 3.5 38.2
06:55 1028 30.36 857 25.31 13.5 56.3 50 3.2 37.8
07:00 1028 30.36 857 25.31 13.7 56.7 50 3.6 38.6
07:05 1028 30.36 857 25.31 13.9 57 51 3.9 39
07:10 1028 30.36 857 25.31 13.9 57.1 51 4.1 39.4
07:15 1028 30.36 857 25.31 13.8 56.9 49 3.5 38.3
07:20 1028 30.36 857 25.31 14 57.2 50 3.8 38.9
07:25 1028 30.36 857 25.31 14.2 57.6 49 3.8 38.9
07:30 1028 30.36 857 25.31 14.7 58.5 49 4.2 39.5
07:35 1028 30.36 857 25.31 14.9 58.8 49 4.4 40
07:40 1028 30.36 857 25.31 15.1 59.2 48 4.2 39.6
07:45 1028 30.36 857 25.31 15.6 60.1 48 4.6 40.3
07:50 1028 30.36 857 25.31 16 60.8 50 5.6 42.1
07:55 1028 30.36 857 25.31 16.4 61.5 42 3.6 38.4
08:00 1028 30.36 857 25.31 16.5 61.7 42 3.8 38.8
08:05 1028 30.36 857 25.31 16.5 61.7 43 4.1 39.4
08:10 1028 30.36 857 25.31 17.2 63 46 5.6 42
08:15 1028 30.36 857 25.31 17.3 63.1 45 5.3 41.6
08:20 1028 30.36 857 25.31 17.5 63.4 42 4.6 40.3
08:25 1028 30.36 857 25.31 18.1 64.6 40 4.4 40
08:30 1028 30.36 857 25.31 18.6 65.5 39 4.7 40.5
08:35 1028 30.36 857 25.31 19.1 66.4 39 5 40.9
08:40 1028 30.36 857 25.31 19.5 67.1 37 4.4 40
08:45 1028 30.36 857 25.31 19.7 67.5 37 4.8 40.7
08:50 1028 30.36 857 25.31 19.8 67.7 37 5.1 41.1
08:55 1028 30.36 857 25.31 19.6 67.3 37 4.7 40.5
09:00 1028 30.36 857 25.31 19.2 66.6 40 5.4 41.7
09:05 1028 30.36 857 25.31 19.3 66.8 39 5 41.1
09:10 1028 30.36 857 25.31 19.6 67.3 39 5.4 41.6
09:15 1028 30.36 857 25.31 19.6 67.3 38 5.1 41.3
09:20 1028 30.36 857 25.31 20.2 68.3 36 5 40.9
09:25 1028 30.36 857 25.31 20.9 69.7 35 5.1 41.2
09:30 1028 30.36 857 25.31 21.1 70 35 5.1 41.2
09:35 1028 30.36 857 25.31 21.9 71.4 30 3.8 38.8
09:40 1028 30.36 857 25.31 21.6 71 32 4.4 40
09:45 1028 30.36 857 25.31 21.4 70.5 34 4.9 40.8
09:50 1028 30.36 857 25.31 22.2 71.9 32 4.7 40.5
09:55 1028 30.36 857 25.31 22.2 71.9 33 5.1 41.2
10:00 1028 30.36 857 25.31 21.9 71.4 34 5.7 42.2
10:05 1028 30.36 857 25.31 21.4 70.6 36 6 42.8
10:10 1028 30.36 857 25.31 21.3 70.4 35 5.4 41.7
10:15 1028 30.36 857 25.31 21.9 71.4 37 6.5 43.8
10:20 1028 30.36 857 25.31 22 71.7 35 6.1 43
10:25 1028 30.36 857 25.31 21.8 71.2 35 5.8 42.5
10:30 1028 30.36 857 25.31 22.1 71.8 36 6.5 43.7
10:35 1027 30.33 857 25.31 21.8 71.3 37 6.8 44.2
10:40 1027 30.33 857 25.31 21.8 71.3 38 6.9 44.4
10:45 1027 30.33 857 25.31 22 71.6 36 6.5 43.7
10:50 1027 30.33 857 25.31 21.8 71.3 36 6.5 43.7
10:55 1027 30.33 857 25.31 21.7 71 37 6.4 43.6
11:00 1027 30.33 857 25.31 21.9 71.4 36 6.4 43.5
11:05 1027 30.33 857 25.31 22.2 72 34 5.7 42.3
11:10 1027 30.33 856 25.28 22.9 73.1 32 5.5 41.8
11:15 1027 30.33 856 25.28 22.7 72.9 33 5.6 42.1
11:20 1027 30.33 856 25.28 23.5 74.2 30 5.2 41.4
11:25 1027 30.33 856 25.28 23.5 74.2 30 5.1 41.2
11:30 1027 30.33 856 25.28 23.5 74.3 30 5.3 41.5
11:35 1027 30.33 856 25.28 23.2 73.7 33 6.3 43.4
11:40 1027 30.33 856 25.28 23.4 74.1 31 5.7 42.3
11:45 1027 30.33 856 25.28 24 75.2 31 6.2 43.2
11:50 1027 30.33 856 25.28 23.6 74.4 32 6.1 43
11:55 1027 30.33 856 25.28 23.7 74.7 31 5.9 42.7
12:00 1027 30.33 856 25.28 24.6 76.4 27 4.7 40.5
12:05 1027 30.33 856 25.28 24.9 76.9 28 5.5 42
12:10 1027 30.33 856 25.28 25 77 29 5.7 42.3
12:15 1027 30.33 856 25.28 25.6 78 25 4.4 40
12:20 1027 30.33 856 25.28 25.1 77.2 26 4.7 40.5
12:25 1027 30.33 856 25.28 25 77 27 5.2 41.3
12:30 1027 30.33 856 25.28 25.4 77.7 22 2.4 36.3
12:35 1027 30.33 856 25.28 25.4 77.8 22 2.7 36.8
12:40 1027 30.33 856 25.28 25.3 77.5 23 2.7 36.9
12:45 1026 30.3 856 25.28 25.4 77.8 22 2.1 35.9
12:50 1026 30.3 856 25.28 25.6 78.2 21 2.1 35.7
12:55 1026 30.3 856 25.28 25.6 78 22 2.5 36.5
13:00 1026 30.3 856 25.28 25.4 77.7 23 2.9 37.3
13:05 1026 30.3 856 25.28 26.2 79.1 21 2.4 36.3
13:10 1026 30.3 855 25.25 25.6 78.1 22 2.5 36.6
13:15 1026 30.3 855 25.25 25.7 78.2 24 3.9 38.9
13:20 1026 30.3 855 25.25 25.6 78.1 23 3 37.4
13:25 1026 30.3 855 25.25 25.9 78.6 21 2.1 35.8
13:30 1026 30.3 855 25.25 25.9 78.5 22 2.6 36.7
13:35 1026 30.3 855 25.25 25.5 77.9 23 3 37.4
13:40 1026 30.3 855 25.25 25.7 78.3 22 2.7 36.9
13:45 1026 30.3 855 25.25 25.6 78.1 23 2.9 37.3
13:50 1026 30.3 855 25.25 27 80.5 21 3.2 37.8
13:55 1026 30.3 855 25.25 27.1 80.8 21 3.3 38
14:00 1026 30.3 855 25.25 26.5 79.8 24 4.6 40.3
14:05 1026 30.3 855 25.25 27.1 80.8 23 4.8 40.6
14:10 1026 30.3 855 25.25 27.1 80.7 22 3.6 38.5
14:15 1026 30.3 855 25.25 26.7 80.1 20 2.1 35.8
14:20 1026 30.3 855 25.25 26.9 80.5 23 4.6 40.2
14:25 1026 30.3 855 25.25 26.6 79.9 22 3.7 38.6
14:30 1026 30.3 855 25.25 27.1 80.8 22 3.9 39.1
14:35 1025 30.27 855 25.25 26.4 79.5 23 3.6 38.5
14:40 1025 30.27 855 25.25 27 80.7 22 3.7 38.6
14:45 1025 30.27 855 25.25 27.6 81.7 20 3 37.4
14:50 1025 30.27 855 25.25 27.2 81 22 4.1 39.4
14:55 1025 30.27 854 25.22 26.9 80.4 21 2.8 37
15:00 1025 30.27 854 25.22 27 80.6 18 1.1 33.9
15:05 1025 30.27 854 25.22 26.8 80.3 22 3.3 37.9
15:10 1025 30.27 854 25.22 27 80.5 20 2.3 36.1
15:15 1025 30.27 854 25.22 27.5 81.5 22 4.1 39.4
15:20 1025 30.27 854 25.22 26.4 79.6 22 3.1 37.6
15:25 1025 30.27 854 25.22 27.2 81 20 2.8 37
15:30 1025 30.27 854 25.22 28.5 83.3 19 3.2 37.8
15:35 1025 30.27 854 25.22 28.2 82.7 21 3.9 39
15:40 1025 30.27 854 25.22 27.8 82.1 19 2.6 36.6
15:45 1025 30.27 854 25.22 27.6 81.6 18 1.5 34.7
15:50 1025 30.27 854 25.22 28.2 82.7 20 3.4 38
15:55 1025 30.27 854 25.22 27.5 81.5 19 1.9 35.4
16:00 1025 30.27 854 25.22 27.5 81.5 20 2.9 37.2
16:05 1025 30.27 854 25.22 27.4 81.3 17 0.2 32.3
16:10 1024 30.24 854 25.22 27.6 81.7 18 1.5 34.6
16:15 1024 30.24 854 25.22 27.7 81.9 17 1.1 33.9
16:20 1024 30.24 854 25.22 27.8 82 16 0.1 32.2
16:25 1024 30.24 853 25.19 27.7 81.9 17 1.1 34
16:30 1024 30.24 853 25.19 27.7 81.8 16 0 32
16:35 1024 30.24 853 25.19 27.1 80.8 18 1 33.9
16:40 1024 30.24 853 25.19 27.3 81.2 18 1.1 34
16:45 1024 30.24 853 25.19 27.5 81.5 19 1.8 35.2
16:50 1024 30.24 853 25.19 27.6 81.7 17 0.8 33.4
16:55 1024 30.24 853 25.19 27.5 81.5 17 1 33.7
17:00 1024 30.24 853 25.19 27.4 81.3 19 1.8 35.3
17:05 1024 30.24 853 25.19 27.4 81.3 16 -0.1 31.8
17:10 1024 30.24 853 25.19 27.4 81.3 17 0.3 32.6
17:15 1024 30.24 853 25.19 27.2 81 16 -0.8 30.5
17:20 1024 30.24 853 25.19 27 80.6 18 0.9 33.5
17:25 1024 30.24 853 25.19 27.4 81.3 17 0.1 32.2
17:30 1024 30.24 853 25.19 27.3 81.1 16 -0.5 31.2
17:35 1024 30.24 853 25.19 27 80.5 16 -0.8 30.6
17:40 1024 30.24 853 25.19 27.1 80.8 16 -0.5 31
17:45 1024 30.24 853 25.19 27 80.5 18 0.9 33.6
17:50 1024 30.24 853 25.19 26.9 80.4 16 -0.5 31.1
17:55 1023 30.21 853 25.19 26.9 80.4 18 1.2 34.1
18:00 1024 30.24 853 25.19 26.6 79.9 18 0.9 33.5
18:05 1023 30.21 853 25.19 26.6 79.9 15 -1.6 29.1
18:10 1023 30.21 853 25.19 26.4 79.5 18 0.1 32.2
18:15 1023 30.21 853 25.19 26.4 79.6 18 0.6 33
18:20 1023 30.21 853 25.19 26.4 79.4 17 -0.1 31.8
18:25 1023 30.21 852 25.16 26.3 79.3 16 -0.9 30.3
18:30 1023 30.21 852 25.16 26.3 79.3 18 0.6 33
18:35 1023 30.21 852 25.16 26.2 79.1 18 0.6 33.1
18:40 1023 30.21 852 25.16 26.2 79.1 19 1 33.7
18:45 1023 30.21 852 25.16 26.1 78.9 18 0.5 32.9
18:50 1023 30.21 852 25.16 26.1 78.9 19 1.2 34.2
18:55 1023 30.21 852 25.16 26 78.8 19 1 33.8
19:00 1023 30.21 852 25.16 25.9 78.7 20 1.4 34.5
19:05 1023 30.21 852 25.16 25.9 78.6 19 0.9 33.7
19:10 1023 30.21 852 25.16 25.8 78.5 20 1.2 34.2
19:15 1023 30.21 852 25.16 25.7 78.2 21 1.8 35.3
19:20 1023 30.21 852 25.16 25.6 78.2 20 1.4 34.6
19:25 1023 30.21 852 25.16 25.6 78 22 2.6 36.6
19:30 1023 30.21 852 25.16 25.3 77.6 22 2.6 36.7
19:35 1023 30.21 852 25.16 25 77 23 2.7 36.8
19:40 1023 30.21 852 25.16 24.8 76.6 23 2.6 36.7
19:45 1023 30.21 852 25.16 24.6 76.3 24 3 37.5
19:50 1023 30.21 852 25.16 24.5 76.1 24 2.8 37.1
19:55 1023 30.21 852 25.16 24.5 76 24 2.6 36.6
20:00 1023 30.21 852 25.16 24.4 75.9 25 3.3 37.9
20:05 1023 30.21 852 25.16 24.3 75.7 26 3.5 38.3
20:10 1023 30.21 852 25.16 24.1 75.3 25 3.2 37.7
20:15 1023 30.21 852 25.16 24 75.1 25 3.2 37.7
20:20 1023 30.21 852 25.16 23.9 75 26 3.3 37.9
20:25 1023 30.21 852 25.16 23.7 74.7 25 3 37.3
20:30 1023 30.21 852 25.16 23.6 74.5 26 3.1 37.5
20:35 1023 30.21 852 25.16 23.5 74.2 27 3.4 38.1
20:40 1023 30.21 852 25.16 23.2 73.8 27 3.5 38.3
20:45 1023 30.21 852 25.16 22.9 73.3 28 3.5 38.3
20:50 1023 30.21 852 25.16 22.8 73 28 3.7 38.6
20:55 1023 30.21 852 25.16 22.5 72.6 29 3.6 38.5
21:00 1023 30.21 852 25.16 22.3 72.1 29 3.6 38.5
21:05 1023 30.21 852 25.16 22 71.7 29 3.5 38.3
21:10 1023 30.21 852 25.16 21.9 71.3 30 3.6 38.6
21:15 1023 30.21 852 25.16 21.7 71 30 3.6 38.4
21:20 1023 30.21 852 25.16 21.5 70.8 30 3.5 38.2
21:25 1023 30.21 852 25.16 21.5 70.7 30 3.6 38.5
21:30 1023 30.21 852 25.16 21.4 70.5 31 3.6 38.5
21:35 1023 30.21 852 25.16 21.3 70.3 31 3.6 38.4
21:40 1023 30.21 852 25.16 21.2 70.1 31 3.6 38.5
21:45 1023 30.21 852 25.16 21.1 70 32 3.7 38.7
21:50 1023 30.21 853 25.19 20.9 69.7 32 3.6 38.5
21:55 1023 30.21 853 25.19 20.9 69.6 32 3.6 38.5
22:00 1024 30.24 853 25.19 20.9 69.5 32 3.7 38.7
22:05 1024 30.24 853 25.19 20.7 69.3 32 3.7 38.6
22:10 1024 30.24 853 25.19 20.6 69 33 3.7 38.7
22:15 1024 30.24 853 25.19 20.4 68.8 33 3.6 38.5
22:20 1024 30.24 853 25.19 20.4 68.7 33 3.7 38.7
22:25 1024 30.24 853 25.19 20.3 68.5 33 3.7 38.7
22:30 1024 30.24 853 25.19 20.2 68.4 33 3.7 38.6
22:35 1024 30.24 853 25.19 20.2 68.3 33 3.6 38.5
22:40 1024 30.24 853 25.19 20.1 68.3 34 3.8 38.9
22:45 1024 30.24 853 25.19 20 68 34 3.7 38.7
22:50 1024 30.24 853 25.19 19.9 67.9 34 3.9 39
22:55 1024 30.24 853 25.19 19.8 67.7 34 3.8 38.9
23:00 1024 30.24 853 25.19 19.8 67.7 34 3.9 38.9
23:05 1024 30.24 853 25.19 19.8 67.6 35 4.1 39.5
23:10 1024 30.24 853 25.19 19.7 67.4 35 4.1 39.4
23:15 1024 30.24 853 25.19 19.6 67.2 36 4.4 39.9
23:20 1024 30.24 853 25.19 19.5 67 37 4.6 40.2
23:25 1024 30.24 853 25.19 19.4 67 37 4.6 40.3
23:30 1024 30.24 853 25.19 19.3 66.7 38 4.7 40.4
23:35 1024 30.24 853 25.19 19.2 66.6 38 4.7 40.4
23:40 1024 30.24 853 25.19 19.2 66.6 38 4.7 40.5
23:45 1023 30.21 853 25.19 19.2 66.6 38 4.6 40.3
23:50 1023 30.21 853 25.19 19.3 66.7 38 4.7 40.4
23:55 1023 30.21 853 25.19 19.2 66.6 38 4.6 40.3
24:00 1023 30.21 853 25.19 19.3 66.7 37 4.5 40.2